Carolina, PR (00988)

1:42 PM AST on February 19, 2017 (GMT -0400)
Ciudad Jardin | | Change Station
Active Advisory: Coastal Hazard Statement Active Notice: Coastal Hazard Statement

Elev 10 ft 18.37 °N, 65.93 °W | Updated 4 minutes ago

Mostly Cloudy
Mostly Cloudy
77.5 °F
Feels Like 79 °F
N
0.0
Wind Variable Wind from NNE
Gusts 0.0 mph

Today
High -- | Low -- °F
--% Chance of Precip.
Yesterday
High -- | Low -- °F
Precip. -- in
Pressure 30.05 in
Visibility 10.0 miles
Clouds Few 2200 ft
Scattered Clouds 6500 ft
Mostly Cloudy 9000 ft
Heat Index 79 °F
Dew Point 72 °F
Humidity 82%
Rainfall 0.02 in
Snow Depth Not available.
6:49 AM 6:26 PM
Last Quarter, 41% visible
METAR TJSJ 191656Z 05008KT 10SM FEW022 SCT065 BKN090 27/21 A3005 RMK AO2 SLP175 T02670211
Pressure 30.05 in
Visibility 10.0 miles
Clouds Few 2200 ft
Scattered Clouds 6500 ft
Mostly Cloudy 9000 ft
Heat Index 79 °F
Dew Point 72 °F
Humidity 82%
Rainfall 0.02 in
Snow Depth Not available.
6:49 AM 6:26 PM
Last Quarter, 41% visible
METAR TJSJ 191656Z 05008KT 10SM FEW022 SCT065 BKN090 27/21 A3005 RMK AO2 SLP175 T02670211

Get Your Daily Forecast Email!

Thanks for signing up!

Be on the lookout for a verification email in your inbox.

You'll start receiving the daily forecast at 8 AM.

×

10-Day Weather Forecast

Almanac

Astronomy

Feb. 19, 2017 Rise Set
Actual Time
Civil Twilight
Nautical Twilight
Astronomical Twilight
Moon
Length of Visible Light
Length of Day
Tomorrow will be .
, % of the Moon is Illuminated

Today's Extremes

State Highs State Lows

Community

WunderPhotos

Upload Photos

1,962,540 photos uploaded!

WunderBlog® & News

Nearby

Air Quality

  Air Quality AQ Index Pollutant
Not available.

Snow Depth

Station Depth Elevation

Earthquake Activity

City Distance Mag. Time & Date
Minimum magnitude displayed is 2.5.

Coastal Water Temperatures

Place Temperature

Stations

Nearby Weather Stations

Station Location Temp. Windchill Dew Point Humidity Wind Precip. Elev Updated Type
                   

Watches & Warnings

Coastal Hazard Statement
Issued: 12:10 PM AST Feb. 19, 2017 – National Weather Service

... High rip current risk remains in effect through early Monday
morning...

* location... beaches along the north coast of Puerto Rico.

* Timing... through early Monday morning.

* Impacts... strong currents that can carry away even the best
swimmers.

Precautionary/preparedness actions...

There is a high risk of rip currents.

Rip currents are powerful channels of water flowing quickly away
from shore... which occur most often at low spots or breaks in The
Sandbar and in the vicinity of structures such as groins...
jetties and piers. Heed the advice of lifeguards... beach patrol
flags and signs.